createdAt,value
2017-09-04T00:02:49.249Z,9.68
2017-09-04T00:07:52.449Z,8.90
2017-09-04T00:12:55.655Z,8.83
2017-09-04T00:17:58.872Z,9.70
2017-09-04T00:23:02.073Z,9.40
2017-09-04T00:28:05.272Z,9.57
2017-09-04T00:33:08.498Z,10.37
2017-09-04T00:38:11.681Z,11.03
2017-09-04T00:43:14.888Z,11.27
2017-09-04T00:48:18.097Z,11.23
2017-09-04T00:53:21.329Z,9.48
2017-09-04T00:58:24.666Z,10.30
2017-09-04T01:03:27.913Z,10.47
2017-09-04T01:08:31.081Z,10.60
2017-09-04T01:13:34.288Z,10.38
2017-09-04T01:18:37.517Z,11.47
2017-09-04T01:23:40.731Z,10.20
2017-09-04T01:28:43.947Z,11.63
2017-09-04T01:33:47.142Z,10.73
2017-09-04T01:38:50.344Z,10.80
2017-09-04T01:43:53.585Z,11.43
2017-09-04T01:48:56.797Z,11.30
2017-09-04T01:54:00.163Z,9.17
2017-09-04T01:59:03.377Z,9.30
2017-09-04T02:04:06.959Z,11.07
2017-09-04T02:09:10.181Z,10.60
2017-09-04T02:14:13.407Z,11.27
2017-09-04T02:19:16.716Z,10.43
2017-09-04T02:24:20.097Z,11.40
2017-09-04T02:29:23.373Z,11.83
2017-09-04T02:34:26.650Z,11.13
2017-09-04T02:39:29.959Z,11.27
2017-09-04T02:44:33.164Z,12.43
2017-09-04T02:49:36.347Z,12.40
2017-09-04T02:54:39.551Z,11.75
2017-09-04T02:59:42.764Z,10.57
2017-09-04T03:04:45.976Z,11.07
2017-09-04T03:09:49.215Z,12.50
2017-09-04T03:14:52.434Z,12.70
2017-09-04T03:19:55.676Z,12.80
2017-09-04T03:24:58.867Z,13.13
2017-09-04T03:30:02.306Z,11.93
2017-09-04T03:35:05.521Z,12.60
2017-09-04T03:40:08.797Z,12.10
2017-09-04T03:45:11.979Z,11.50
2017-09-04T03:50:15.176Z,11.23
2017-09-04T03:55:18.401Z,13.30
2017-09-04T04:00:21.612Z,11.13
2017-09-04T04:05:24.789Z,11.70
2017-09-04T04:10:27.953Z,12.50
2017-09-04T04:15:31.260Z,12.80
2017-09-04T04:20:34.456Z,11.77
2017-09-04T04:25:37.652Z,13.70
2017-09-04T04:30:40.838Z,11.00
2017-09-04T04:35:44.060Z,12.23
2017-09-04T04:40:47.262Z,12.97
2017-09-04T04:45:50.480Z,12.13
2017-09-04T04:50:53.734Z,13.10
2017-09-04T04:55:56.942Z,10.70
2017-09-04T05:01:00.158Z,12.63
2017-09-04T05:06:03.379Z,12.10
2017-09-04T05:11:06.607Z,11.40
2017-09-04T05:16:09.812Z,10.20
2017-09-04T05:21:13.033Z,11.07
2017-09-04T05:26:16.259Z,10.60
2017-09-04T05:31:19.499Z,10.87
2017-09-04T05:36:22.706Z,9.57
2017-09-04T05:41:26.049Z,11.80
2017-09-04T05:46:29.258Z,11.77
2017-09-04T05:51:32.494Z,11.93
2017-09-04T05:56:35.729Z,12.23
2017-09-04T06:01:38.926Z,12.93
2017-09-04T06:06:42.122Z,12.37
2017-09-04T06:11:45.400Z,12.93
2017-09-04T06:16:48.602Z,13.27
2017-09-04T06:21:51.810Z,11.90
2017-09-04T06:26:55.046Z,12.48
2017-09-04T06:31:58.250Z,12.00
2017-09-04T06:37:01.442Z,12.43
2017-09-04T06:42:04.658Z,12.13
2017-09-04T06:47:07.854Z,12.10
2017-09-04T06:52:11.062Z,11.20
2017-09-04T06:57:14.312Z,11.00
2017-09-04T07:02:17.530Z,12.10
2017-09-04T07:07:20.735Z,13.07
2017-09-04T07:12:23.935Z,12.23
2017-09-04T07:17:27.171Z,14.57
2017-09-04T07:22:30.386Z,12.20
2017-09-04T07:27:33.550Z,12.10
2017-09-04T07:32:36.787Z,13.32
2017-09-04T07:37:39.997Z,10.87
2017-09-04T07:42:43.230Z,13.68
2017-09-04T07:47:46.516Z,13.13
2017-09-04T07:52:49.731Z,12.60
2017-09-04T07:57:52.909Z,13.43
2017-09-04T08:02:56.144Z,13.60
2017-09-04T08:07:59.341Z,13.37
2017-09-04T08:13:02.549Z,12.43
2017-09-04T08:18:05.753Z,14.03
2017-09-04T08:23:08.988Z,12.23
2017-09-04T08:28:12.220Z,11.23
2017-09-04T08:33:15.437Z,11.07
2017-09-04T08:38:18.713Z,10.63
2017-09-04T08:43:21.964Z,11.80
2017-09-04T08:48:25.173Z,11.33
2017-09-04T08:53:28.440Z,11.40
2017-09-04T08:58:31.662Z,10.80
2017-09-04T09:03:34.898Z,11.53
2017-09-04T09:08:38.136Z,12.07
2017-09-04T09:13:41.320Z,12.55
2017-09-04T09:18:44.540Z,12.10
2017-09-04T09:23:47.750Z,12.10
2017-09-04T09:28:50.968Z,11.97
2017-09-04T09:33:54.203Z,12.00
2017-09-04T09:38:57.412Z,13.13
2017-09-04T09:44:00.626Z,12.30
2017-09-04T09:49:03.825Z,9.83
2017-09-04T09:54:07.069Z,10.93
2017-09-04T09:59:10.306Z,10.93
2017-09-04T10:04:13.527Z,10.03
2017-09-04T10:09:16.730Z,10.27
2017-09-04T10:14:19.946Z,9.03
2017-09-04T10:19:23.178Z,9.70
2017-09-04T10:24:26.405Z,9.35
2017-09-04T10:29:29.611Z,8.93
2017-09-04T10:34:32.833Z,9.13
2017-09-04T10:39:36.054Z,9.37
2017-09-04T10:44:39.256Z,8.10
2017-09-04T10:49:42.472Z,7.27
2017-09-04T10:54:45.670Z,6.70
2017-09-04T10:59:48.911Z,6.90
2017-09-04T11:04:52.124Z,6.62
2017-09-04T11:09:56.232Z,7.00
2017-09-04T11:14:59.429Z,5.60
2017-09-04T11:20:02.701Z,6.10
2017-09-04T11:25:05.882Z,5.40
2017-09-04T11:30:09.097Z,5.90
2017-09-04T11:35:12.292Z,7.00
2017-09-04T11:40:15.494Z,7.03
2017-09-04T11:45:18.735Z,5.97
2017-09-04T11:50:21.937Z,7.10
2017-09-04T11:55:25.198Z,8.27
2017-09-04T12:00:28.631Z,8.03
2017-09-04T12:05:31.837Z,7.97
2017-09-04T12:10:35.088Z,7.40
2017-09-04T12:15:38.303Z,6.40
2017-09-04T12:20:41.523Z,6.73
2017-09-04T12:25:44.835Z,6.53
2017-09-04T12:30:48.001Z,7.70
2017-09-04T12:35:51.226Z,6.20
2017-09-04T12:40:54.447Z,7.30
2017-09-04T12:45:57.661Z,5.97
2017-09-04T12:51:00.856Z,6.20
2017-09-04T12:56:04.105Z,5.57
2017-09-04T13:01:07.318Z,5.77
2017-09-04T13:06:10.518Z,4.70
2017-09-04T13:11:19.377Z,4.90
2017-09-04T13:16:28.178Z,5.13
2017-09-04T13:21:36.940Z,5.20
2017-09-04T13:26:45.675Z,5.20
2017-09-04T13:31:54.306Z,4.50
2017-09-04T13:37:03.085Z,5.10
2017-09-04T13:42:11.759Z,4.70
2017-09-04T14:03:36.549Z,4.53
2017-09-04T14:08:45.410Z,3.97
2017-09-04T14:13:54.037Z,4.70
2017-09-04T14:18:57.214Z,4.57
2017-09-04T14:24:00.428Z,4.82
2017-09-04T14:29:03.666Z,4.70
2017-09-04T14:34:06.875Z,4.43
2017-09-04T14:39:10.094Z,4.20
2017-09-04T14:44:15.277Z,4.37
2017-09-04T14:49:18.837Z,3.77
2017-09-04T14:54:22.043Z,4.67
2017-09-04T14:59:25.267Z,3.90
2017-09-04T15:04:28.491Z,4.10
2017-09-04T15:09:31.746Z,4.83
2017-09-04T15:14:35.277Z,5.13
2017-09-04T15:19:38.568Z,4.10
2017-09-04T15:24:41.773Z,5.20
2017-09-04T15:29:44.980Z,5.77
2017-09-04T15:34:48.192Z,5.07
2017-09-04T15:39:51.415Z,5.27
2017-09-04T15:44:54.625Z,5.07
2017-09-04T15:49:57.836Z,6.50
2017-09-04T15:55:01.054Z,5.73
2017-09-04T16:00:04.247Z,5.10
2017-09-04T16:05:07.456Z,5.80
2017-09-04T16:10:11.467Z,6.47
2017-09-04T16:15:17.520Z,6.30
2017-09-04T16:20:23.690Z,6.33
2017-09-04T16:25:28.158Z,6.57
2017-09-04T16:36:14.973Z,5.80
2017-09-04T16:41:19.017Z,6.07
2017-09-04T16:46:23.598Z,7.00
2017-09-04T16:51:32.172Z,6.10
2017-09-04T16:56:48.120Z,6.17
2017-09-04T17:01:51.450Z,7.43
2017-09-04T17:06:54.686Z,5.93
2017-09-04T17:12:09.590Z,6.37
2017-09-04T17:17:13.314Z,6.23
2017-09-04T17:22:17.191Z,5.97
2017-09-04T17:27:20.441Z,6.93
2017-09-04T17:32:23.661Z,6.93
2017-09-04T17:37:26.835Z,5.80
2017-09-04T17:42:30.075Z,5.00
2017-09-04T17:47:33.304Z,5.00
2017-09-04T17:52:36.512Z,4.67
2017-09-04T17:57:39.741Z,4.97
2017-09-04T18:02:43.008Z,4.60
2017-09-04T18:07:46.173Z,4.70
2017-09-04T18:12:49.367Z,4.70
2017-09-04T18:17:52.583Z,5.33
2017-09-04T18:22:55.755Z,4.87
2017-09-04T18:27:58.974Z,6.07
2017-09-04T18:33:02.170Z,5.70
2017-09-04T18:38:05.370Z,11.43
2017-09-04T18:43:08.612Z,7.17
2017-09-04T18:48:11.946Z,5.57
2017-09-04T18:53:15.238Z,7.07
2017-09-04T18:58:18.463Z,5.77
2017-09-04T19:03:21.683Z,6.23
2017-09-04T19:08:24.911Z,5.30
2017-09-04T19:13:28.168Z,5.28
2017-09-04T19:18:31.357Z,6.23
2017-09-04T19:23:34.604Z,5.50
2017-09-04T19:28:37.852Z,5.07
2017-09-04T19:33:41.115Z,6.97
2017-09-04T19:38:44.342Z,6.30
2017-09-04T19:43:47.550Z,6.27
2017-09-04T19:48:50.855Z,5.83
2017-09-04T19:53:54.135Z,5.30
2017-09-04T19:58:57.409Z,4.63
2017-09-04T20:04:00.671Z,4.87
2017-09-04T20:09:03.865Z,4.80
2017-09-04T20:14:07.096Z,4.90
2017-09-04T20:19:10.307Z,5.03
2017-09-04T20:24:13.525Z,5.53
2017-09-04T20:29:16.696Z,5.00
2017-09-04T20:34:19.912Z,4.93
2017-09-04T20:39:23.118Z,5.40
2017-09-04T20:44:26.335Z,5.93
2017-09-04T20:49:29.615Z,5.07
2017-09-04T20:54:32.841Z,6.00
2017-09-04T20:59:36.194Z,7.30
2017-09-04T21:04:39.608Z,29.70
2017-09-04T21:09:42.803Z,8.00
2017-09-04T21:14:46.030Z,8.07
2017-09-04T21:19:49.203Z,8.17
2017-09-04T21:24:52.429Z,7.97
2017-09-04T21:29:55.639Z,7.90
2017-09-04T21:34:58.959Z,8.10
2017-09-04T21:40:02.187Z,6.60
2017-09-04T21:45:05.441Z,7.47
2017-09-04T21:50:08.664Z,6.10
2017-09-04T21:55:11.899Z,6.50
2017-09-04T22:00:15.159Z,7.20
2017-09-04T22:05:18.384Z,6.90
2017-09-04T22:10:21.745Z,7.17
2017-09-04T22:15:24.956Z,6.60
2017-09-04T22:20:28.183Z,6.67
2017-09-04T22:25:31.365Z,6.00
2017-09-04T22:30:34.608Z,6.53
2017-09-04T22:35:37.837Z,6.20
2017-09-04T22:40:41.062Z,7.17
2017-09-04T22:45:44.291Z,8.07
2017-09-04T22:50:47.501Z,6.73
2017-09-04T22:55:50.843Z,8.67
2017-09-04T23:00:54.047Z,6.80
2017-09-04T23:05:57.268Z,8.00
2017-09-04T23:11:00.485Z,7.37
2017-09-04T23:16:03.701Z,7.13
2017-09-04T23:21:06.913Z,8.00
2017-09-04T23:26:10.143Z,7.27
2017-09-04T23:31:13.343Z,7.33
2017-09-04T23:36:16.611Z,8.03
2017-09-04T23:41:19.825Z,8.47
2017-09-04T23:46:23.047Z,9.07
2017-09-04T23:51:26.316Z,8.20
2017-09-04T23:56:29.525Z,7.57
